Terminal Aerodrome Forecast
Issued by NWS Cleveland, OH

Home | Current Version | Previous Version | Text Only | Print | Product List | Glossary Off
Versions: 1 2 3 4 5 6 7 8 9 10 11 12 13 14 15 16 17 18 19 20 21

081
FTUS41 KCLE 281737 AAD
TAFCAK
TAF AMD
KCAK 281737Z 2818/2918 19008KT 5SM HZ SCT009 BKN035
      TEMPO 2818/2820 BKN009
     FM290000 21004KT P6SM VCTS SCT035CB BKN050
      TEMPO 2901/2903 VRB20G35KT 3SM TSRA BKN025CB OVC040
     FM290500 24008KT P6SM BKN035 OVC080
     FM291600 25012KT P6SM SCT040=

USA.gov is the U.S. government's official web portal to all federal, state and local government web resources and services.